Budennovsk, Russia
Current Conditions -  °F | °C
As of 5:00 AM on Tuesday 23 Dec 2014 (Local Time) from URMM Reporting Station
Scattered Clouds Scattered Clouds  
Wind Chill: 27°   Ceiling: Unl
Heat Index: 27°   Visibility: 6mi
Dew Point: 19°   Wind: 2mph
Humidity: 74%   Direction: 20°NNE
Pressure: 30.03"   Gusts: NA
Location:  44.76°N, 44.1°E
Report Text: URMM 230200Z 02001MPS 9999 SCT230 M03/M07 Q1017 R30/CLRD70NOSIG RMK QFE734/0979
Loading
Personal Weather Stations






























Interactive Weather Map New forecast layout! Learn more

10-Day Weather Forecast

Advertisements
Track Severe Weather on mobile